createdAt,value
2019-02-12T00:01:47.581Z,67.06
2019-02-12T00:04:19.250Z,67.07
2019-02-12T00:06:50.952Z,66.97
2019-02-12T00:09:22.841Z,67.07
2019-02-12T00:11:54.599Z,66.87
2019-02-12T00:14:26.354Z,67.04
2019-02-12T00:16:57.953Z,66.95
2019-02-12T00:19:29.600Z,66.65
2019-02-12T00:22:01.187Z,66.84
2019-02-12T00:24:32.846Z,66.97
2019-02-12T00:27:04.512Z,67.24
2019-02-12T00:29:36.069Z,67.01
2019-02-12T00:32:07.725Z,66.95
2019-02-12T00:34:39.297Z,67.28
2019-02-12T00:37:10.965Z,67.16
2019-02-12T00:39:42.547Z,67.10
2019-02-12T00:42:14.232Z,67.24
2019-02-12T00:44:45.790Z,67.25
2019-02-12T00:47:17.375Z,67.34
2019-02-12T00:49:49.028Z,67.29
2019-02-12T00:52:20.908Z,67.24
2019-02-12T00:54:52.818Z,67.49
2019-02-12T00:57:24.411Z,67.27
2019-02-12T00:59:56.070Z,67.05
2019-02-12T01:02:27.745Z,67.27
2019-02-12T01:04:59.331Z,67.27
2019-02-12T01:07:30.924Z,67.45
2019-02-12T01:10:02.525Z,67.49
2019-02-12T01:12:34.183Z,67.60
2019-02-12T01:15:07.021Z,67.81
2019-02-12T01:17:38.612Z,67.96
2019-02-12T01:20:11.677Z,68.06
2019-02-12T01:22:43.246Z,67.98
2019-02-12T01:25:14.822Z,67.95
2019-02-12T01:27:46.395Z,68.03
2019-02-12T01:30:18.086Z,68.07
2019-02-12T01:32:49.750Z,67.87
2019-02-12T01:35:21.326Z,67.99
2019-02-12T01:37:53.146Z,67.99
2019-02-12T01:40:24.726Z,68.13
2019-02-12T01:42:56.340Z,68.30
2019-02-12T01:45:27.900Z,68.33
2019-02-12T01:47:59.487Z,68.30
2019-02-12T01:50:31.134Z,68.34
2019-02-12T01:53:02.723Z,68.34
2019-02-12T01:55:34.317Z,68.46
2019-02-12T01:58:05.989Z,68.54
2019-02-12T02:00:37.576Z,68.55
2019-02-12T02:03:09.443Z,68.69
2019-02-12T02:05:41.101Z,68.91
2019-02-12T02:08:12.747Z,68.47
2019-02-12T02:10:44.407Z,68.43
2019-02-12T02:13:16.081Z,68.52
2019-02-12T02:15:47.736Z,69.29
2019-02-12T02:18:19.318Z,68.45
2019-02-12T02:20:51.005Z,68.61
2019-02-12T02:23:22.865Z,68.30
2019-02-12T02:25:54.453Z,68.15
2019-02-12T02:28:26.124Z,68.29
2019-02-12T02:30:57.783Z,68.37
2019-02-12T02:33:29.392Z,68.12
2019-02-12T02:36:00.953Z,67.96
2019-02-12T02:38:32.601Z,68.09
2019-02-12T02:41:04.248Z,67.78
2019-02-12T02:43:35.997Z,67.75
2019-02-12T02:46:08.640Z,67.50
2019-02-12T02:48:40.330Z,67.38
2019-02-12T02:51:11.914Z,67.17
2019-02-12T02:53:43.785Z,67.26
2019-02-12T02:56:16.366Z,67.25
2019-02-12T02:58:48.066Z,67.50
2019-02-12T03:01:19.815Z,67.02
2019-02-12T03:03:51.489Z,66.69
2019-02-12T03:06:23.228Z,67.17
2019-02-12T03:08:54.925Z,66.81
2019-02-12T03:11:26.562Z,66.76
2019-02-12T03:13:59.311Z,66.86
2019-02-12T03:16:30.918Z,66.93
2019-02-12T03:19:02.590Z,66.58
2019-02-12T03:21:34.210Z,66.70
2019-02-12T03:24:05.814Z,66.67
2019-02-12T03:26:37.448Z,66.65
2019-02-12T03:29:09.057Z,66.80
2019-02-12T03:31:40.628Z,66.88
2019-02-12T03:34:12.307Z,66.82
2019-02-12T03:36:43.917Z,66.81
2019-02-12T03:39:15.587Z,67.40
2019-02-12T03:41:47.246Z,67.04
2019-02-12T03:44:19.066Z,67.24
2019-02-12T03:46:50.662Z,67.30
2019-02-12T03:49:22.337Z,67.34
2019-02-12T03:51:54.076Z,67.48
2019-02-12T03:54:26.023Z,67.78
2019-02-12T03:56:57.594Z,67.77
2019-02-12T03:59:29.268Z,67.67
2019-02-12T04:02:00.909Z,67.59
2019-02-12T04:04:32.582Z,67.86
2019-02-12T04:07:04.230Z,67.94
2019-02-12T04:09:35.902Z,68.04
2019-02-12T04:12:07.488Z,68.34
2019-02-12T04:14:39.231Z,68.08
2019-02-12T04:17:10.830Z,68.26
2019-02-12T04:19:42.498Z,68.41
2019-02-12T04:22:22.214Z,68.30
2019-02-12T04:24:47.431Z,68.30
2019-02-12T04:27:19.068Z,68.09
2019-02-12T04:29:50.679Z,68.14
2019-02-12T04:32:22.262Z,68.24
2019-02-12T04:34:54.093Z,68.01
2019-02-12T04:37:26.031Z,68.26
2019-02-12T04:39:57.704Z,68.12
2019-02-12T04:42:29.344Z,67.96
2019-02-12T04:45:01.095Z,67.96
2019-02-12T04:47:32.839Z,68.12
2019-02-12T04:50:04.799Z,67.91
2019-02-12T04:52:36.460Z,67.82
2019-02-12T04:55:09.319Z,67.84
2019-02-12T04:57:40.971Z,67.86
2019-02-12T05:00:14.026Z,67.64
2019-02-12T05:02:46.583Z,67.61
2019-02-12T05:05:18.247Z,67.49
2019-02-12T05:07:50.123Z,67.56
2019-02-12T05:10:22.404Z,67.42
2019-02-12T05:12:54.097Z,67.20
2019-02-12T05:15:26.031Z,67.33
2019-02-12T05:17:57.684Z,67.37
2019-02-12T05:20:29.245Z,67.22
2019-02-12T05:23:00.824Z,67.61
2019-02-12T05:25:32.473Z,67.40
2019-02-12T05:28:04.109Z,67.33
2019-02-12T05:30:35.698Z,67.62
2019-02-12T05:33:07.354Z,67.45
2019-02-12T05:35:38.925Z,67.42
2019-02-12T05:38:11.091Z,67.41
2019-02-12T05:40:42.779Z,67.50
2019-02-12T05:43:14.363Z,67.57
2019-02-12T05:45:46.067Z,67.09
2019-02-12T05:48:17.659Z,66.96
2019-02-12T05:50:49.365Z,66.68
2019-02-12T05:53:21.172Z,67.00
2019-02-12T05:55:53.102Z,66.82
2019-02-12T05:58:25.127Z,66.51
2019-02-12T06:00:56.893Z,66.43
2019-02-12T06:03:28.476Z,66.37
2019-02-12T06:06:00.062Z,66.16
2019-02-12T06:08:31.644Z,66.54
2019-02-12T06:11:03.262Z,66.25
2019-02-12T06:13:34.923Z,66.23
2019-02-12T06:16:06.601Z,66.30
2019-02-12T06:18:38.181Z,66.39
2019-02-12T06:21:11.298Z,66.71
2019-02-12T06:23:42.848Z,66.71
2019-02-12T06:26:14.523Z,66.41
2019-02-12T06:28:46.171Z,66.81
2019-02-12T06:31:17.802Z,67.03
2019-02-12T06:33:49.396Z,67.08
2019-02-12T06:36:21.118Z,66.83
2019-02-12T06:38:52.920Z,67.38
2019-02-12T06:41:24.524Z,66.73
2019-02-12T06:43:56.112Z,66.23
2019-02-12T06:46:29.445Z,66.57
2019-02-12T06:49:01.093Z,66.24
2019-02-12T06:51:32.680Z,65.81
2019-02-12T06:54:04.670Z,65.98
2019-02-12T06:56:36.265Z,65.58
2019-02-12T06:59:07.883Z,65.72
2019-02-12T07:01:39.488Z,65.30
2019-02-12T07:04:14.433Z,65.19
2019-02-12T07:07:20.442Z,65.30
2019-02-12T07:10:12.577Z,65.00
2019-02-12T07:13:24.452Z,65.63
2019-02-12T07:16:21.121Z,65.40
2019-02-12T07:19:24.563Z,64.83
2019-02-12T07:22:33.302Z,65.18
2019-02-12T07:25:42.262Z,64.98
2019-02-12T07:28:38.220Z,65.24
2019-02-12T07:31:51.845Z,65.03
2019-02-12T07:35:17.315Z,65.03
2019-02-12T07:38:20.467Z,65.04
2019-02-12T07:41:51.883Z,64.86
2019-02-12T07:45:07.646Z,64.18
2019-02-12T07:48:23.578Z,64.52
2019-02-12T07:51:23.642Z,64.47
2019-02-12T07:54:29.332Z,64.02
2019-02-12T07:57:47.328Z,64.06
2019-02-12T08:00:58.373Z,63.81
2019-02-12T08:04:44.371Z,63.38
2019-02-12T08:08:16.084Z,63.89
2019-02-12T08:11:30.089Z,63.54
2019-02-12T08:14:32.683Z,63.45
2019-02-12T08:17:40.839Z,63.46
2019-02-12T08:20:56.920Z,63.41
2019-02-12T08:24:08.074Z,63.18
2019-02-12T08:26:59.304Z,62.68
2019-02-12T08:30:13.793Z,63.18
2019-02-12T08:33:29.719Z,62.52
2019-02-12T08:36:18.701Z,63.06
2019-02-12T08:39:34.026Z,62.04
2019-02-12T08:42:33.589Z,62.44
2019-02-12T08:45:43.705Z,62.11
2019-02-12T08:49:01.072Z,62.20
2019-02-12T08:52:06.670Z,62.05
2019-02-12T08:55:04.338Z,61.68
2019-02-12T08:58:10.407Z,61.33
2019-02-12T09:01:27.798Z,61.29
2019-02-12T09:04:52.301Z,60.95
2019-02-12T09:07:59.230Z,60.01
2019-02-12T09:11:06.221Z,60.15
2019-02-12T09:14:05.386Z,60.45
2019-02-12T09:17:13.873Z,60.15
2019-02-12T09:20:31.287Z,60.16
2019-02-12T09:23:41.688Z,59.55
2019-02-12T09:26:34.054Z,58.75
2019-02-12T09:29:26.182Z,58.43
2019-02-12T09:32:53.985Z,58.23
2019-02-12T09:35:49.006Z,57.81
2019-02-12T09:39:10.785Z,57.77
2019-02-12T09:41:58.658Z,57.70
2019-02-12T09:45:05.476Z,57.67
2019-02-12T09:48:08.350Z,58.43
2019-02-12T09:50:58.086Z,57.58
2019-02-12T09:54:21.807Z,56.88
2019-02-12T09:57:34.701Z,58.54
2019-02-12T10:00:34.430Z,57.94
2019-02-12T10:03:48.577Z,58.58
2019-02-12T10:06:55.686Z,57.74
2019-02-12T10:10:08.765Z,57.43
2019-02-12T10:13:22.769Z,56.81
2019-02-12T10:16:31.353Z,56.65
2019-02-12T10:19:38.679Z,54.88
2019-02-12T10:22:39.227Z,53.85
2019-02-12T10:25:34.721Z,53.96
2019-02-12T10:28:59.150Z,53.76
2019-02-12T10:31:49.060Z,52.88
2019-02-12T10:34:20.890Z,54.05
2019-02-12T10:36:52.817Z,53.97
2019-02-12T10:39:24.646Z,54.94
2019-02-12T10:41:56.581Z,54.65
2019-02-12T10:44:28.195Z,53.98
2019-02-12T10:46:59.851Z,54.14
2019-02-12T10:49:31.610Z,52.87
2019-02-12T10:52:03.357Z,51.33
2019-02-12T10:54:35.999Z,50.98
2019-02-12T10:57:07.655Z,51.55
2019-02-12T10:59:39.241Z,50.76
2019-02-12T11:02:11.920Z,51.58
2019-02-12T11:04:43.588Z,50.01
2019-02-12T11:07:15.190Z,50.42
2019-02-12T11:09:46.785Z,51.34
2019-02-12T11:12:18.654Z,52.33
2019-02-12T11:14:50.590Z,50.78
2019-02-12T11:17:22.249Z,51.10
2019-02-12T11:19:53.857Z,51.08
2019-02-12T11:22:25.478Z,50.93
2019-02-12T11:24:57.154Z,51.93
2019-02-12T11:27:28.741Z,52.64
2019-02-12T11:32:49.885Z,52.68
2019-02-12T11:35:21.823Z,52.72
2019-02-12T11:37:53.745Z,52.18
2019-02-12T11:40:25.358Z,51.00
2019-02-12T11:42:57.100Z,51.31
2019-02-12T11:45:28.781Z,51.13
2019-02-12T11:48:00.451Z,51.21
2019-02-12T11:50:32.068Z,51.84
2019-02-12T11:53:03.743Z,53.33
2019-02-12T11:55:36.415Z,52.60
2019-02-12T11:58:08.069Z,52.32
2019-02-12T12:01:04.656Z,53.07
2019-02-12T12:03:36.314Z,52.85
2019-02-12T12:06:07.905Z,52.96
2019-02-12T12:08:39.498Z,52.95
2019-02-12T12:11:11.192Z,53.04
2019-02-12T12:13:42.873Z,53.34
2019-02-12T12:16:14.503Z,52.44
2019-02-12T12:18:46.165Z,53.08
2019-02-12T12:21:17.781Z,52.67
2019-02-12T12:23:49.375Z,52.62
2019-02-12T12:26:20.972Z,52.76
2019-02-12T12:28:52.907Z,53.52
2019-02-12T12:31:24.747Z,53.14
2019-02-12T12:33:57.839Z,52.87
2019-02-12T12:36:29.465Z,53.27
2019-02-12T12:39:01.097Z,52.59
2019-02-12T12:41:34.321Z,52.86
2019-02-12T12:44:05.989Z,53.40
2019-02-12T12:46:37.688Z,52.69
2019-02-12T12:49:09.347Z,52.35
2019-02-12T12:51:41.026Z,52.25
2019-02-12T12:54:12.689Z,51.81
2019-02-12T12:56:44.383Z,51.90
2019-02-12T12:59:16.056Z,52.02
2019-02-12T13:01:47.831Z,51.84
2019-02-12T13:04:19.480Z,51.81
2019-02-12T13:06:51.170Z,51.65
2019-02-12T13:09:22.824Z,51.82
2019-02-12T13:11:54.752Z,52.03
2019-02-12T13:14:26.653Z,51.55
2019-02-12T13:16:58.264Z,52.17
2019-02-12T13:19:29.845Z,51.84
2019-02-12T13:22:02.901Z,52.01
2019-02-12T13:24:34.586Z,52.26
2019-02-12T13:27:08.185Z,51.66
2019-02-12T13:29:42.244Z,51.65
2019-02-12T13:32:16.182Z,52.38
2019-02-12T13:34:50.510Z,52.94
2019-02-12T13:37:25.084Z,52.98
2019-02-12T13:39:57.634Z,52.43
2019-02-12T13:42:30.362Z,52.19
2019-02-12T13:45:02.077Z,52.32
2019-02-12T13:47:35.252Z,51.94
2019-02-12T13:50:07.887Z,52.61
2019-02-12T13:52:40.021Z,51.42
2019-02-12T13:55:17.443Z,51.19
2019-02-12T13:57:46.707Z,52.00
2019-02-12T14:00:18.634Z,52.12
2019-02-12T14:02:51.005Z,52.23
2019-02-12T14:05:23.217Z,51.55
2019-02-12T14:07:55.256Z,50.87
2019-02-12T14:10:26.935Z,51.93
2019-02-12T14:12:59.404Z,51.34
2019-02-12T14:15:33.786Z,51.77
2019-02-12T14:18:06.172Z,51.87
2019-02-12T14:20:39.061Z,51.19
2019-02-12T14:23:10.991Z,51.43
2019-02-12T14:25:43.025Z,50.96
2019-02-12T14:28:16.038Z,51.79
2019-02-12T14:30:47.806Z,50.57
2019-02-12T14:33:19.551Z,50.41
2019-02-12T14:35:51.625Z,50.46
2019-02-12T14:38:25.990Z,50.79
2019-02-12T14:40:58.132Z,50.98
2019-02-12T14:43:32.471Z,50.59
2019-02-12T14:46:04.625Z,50.24
2019-02-12T14:48:36.862Z,50.18
2019-02-12T14:51:09.295Z,50.53
2019-02-12T14:53:42.634Z,51.30
2019-02-12T14:56:14.265Z,50.78
2019-02-12T14:58:47.462Z,50.94
2019-02-12T15:01:19.776Z,50.84
2019-02-12T15:03:51.916Z,51.13
2019-02-12T15:06:24.330Z,52.15
2019-02-12T15:08:56.143Z,51.02
2019-02-12T15:11:27.957Z,51.37
2019-02-12T15:13:59.732Z,51.41
2019-02-12T15:16:31.586Z,51.64
2019-02-12T15:19:03.657Z,51.77
2019-02-12T15:21:35.585Z,52.72
2019-02-12T15:24:07.918Z,52.63
2019-02-12T15:26:39.860Z,52.63
2019-02-12T15:29:12.203Z,52.98
2019-02-12T15:31:44.373Z,53.10
2019-02-12T15:34:16.371Z,53.44
2019-02-12T15:36:48.167Z,53.39
2019-02-12T15:39:19.901Z,53.54
2019-02-12T15:41:53.242Z,53.74
2019-02-12T15:44:27.046Z,53.91
2019-02-12T15:47:00.888Z,54.19
2019-02-12T15:49:33.684Z,54.08
2019-02-12T15:52:05.644Z,54.83
2019-02-12T15:54:38.068Z,54.73
2019-02-12T15:57:10.110Z,54.56
2019-02-12T15:59:41.811Z,55.22
2019-02-12T16:02:13.723Z,54.87
2019-02-12T16:04:50.189Z,54.93
2019-02-12T16:07:24.318Z,54.95
2019-02-12T16:09:57.046Z,54.80
2019-02-12T16:12:29.168Z,54.75
2019-02-12T16:15:01.743Z,54.86
2019-02-12T16:17:36.924Z,54.84
2019-02-12T16:20:10.143Z,55.23
2019-02-12T16:22:43.091Z,55.04
2019-02-12T16:25:16.769Z,55.04
2019-02-12T16:27:51.559Z,55.01
2019-02-12T16:30:23.303Z,55.16
2019-02-12T16:32:58.475Z,55.55
2019-02-12T16:35:31.212Z,55.45
2019-02-12T16:38:03.936Z,55.86
2019-02-12T16:40:36.174Z,55.84
2019-02-12T16:43:07.871Z,56.37
2019-02-12T16:45:53.097Z,56.28
2019-02-12T16:48:26.382Z,56.40
2019-02-12T16:50:58.582Z,56.53
2019-02-12T16:53:36.522Z,56.62
2019-02-12T16:56:12.434Z,56.70
2019-02-12T16:58:45.036Z,56.75
2019-02-12T17:01:17.279Z,56.36
2019-02-12T17:03:49.403Z,56.42
2019-02-12T17:06:21.740Z,56.78
2019-02-12T17:08:54.556Z,56.98
2019-02-12T17:11:26.227Z,57.11
2019-02-12T17:13:59.682Z,56.98
2019-02-12T17:16:33.381Z,57.19
2019-02-12T17:19:06.094Z,57.05
2019-02-12T17:21:38.035Z,57.22
2019-02-12T17:24:11.038Z,56.70
2019-02-12T17:26:43.016Z,57.01
2019-02-12T17:29:15.203Z,57.10
2019-02-12T17:31:46.925Z,56.64
2019-02-12T17:34:18.599Z,56.64
2019-02-12T17:36:52.180Z,57.04
2019-02-12T17:39:24.964Z,57.15
2019-02-12T17:41:56.772Z,57.75
2019-02-12T17:44:28.819Z,57.91
2019-02-12T17:47:00.686Z,58.10
2019-02-12T17:49:32.808Z,58.59
2019-02-12T17:52:04.883Z,58.74
2019-02-12T17:54:36.636Z,58.69
2019-02-12T17:57:08.332Z,59.09
2019-02-12T17:59:41.653Z,59.27
2019-02-12T18:02:14.050Z,59.44
2019-02-12T18:04:46.621Z,59.47
2019-02-12T18:07:18.849Z,59.24
2019-02-12T18:09:51.104Z,59.50
2019-02-12T18:12:23.913Z,59.50
2019-02-12T18:14:56.073Z,59.74
2019-02-12T18:17:27.911Z,60.14
2019-02-12T18:20:00.831Z,60.06
2019-02-12T18:22:34.447Z,60.18
2019-02-12T18:25:07.481Z,60.35
2019-02-12T18:27:40.687Z,60.67
2019-02-12T18:30:14.350Z,60.69
2019-02-12T18:32:46.127Z,60.56
2019-02-12T18:35:18.243Z,61.00
2019-02-12T18:37:50.422Z,60.98
2019-02-12T18:40:22.183Z,60.81
2019-02-12T18:42:56.278Z,61.63
2019-02-12T18:45:28.679Z,60.71
2019-02-12T18:48:01.241Z,60.75
2019-02-12T18:50:33.521Z,60.56
2019-02-12T18:53:05.899Z,60.54
2019-02-12T18:55:38.211Z,60.53
2019-02-12T18:58:10.455Z,60.83
2019-02-12T19:00:42.137Z,60.96
2019-02-12T19:03:13.791Z,60.65
2019-02-12T19:05:48.353Z,60.79
2019-02-12T19:08:20.830Z,60.96
2019-02-12T19:10:53.003Z,60.99
2019-02-12T19:13:25.367Z,60.97
2019-02-12T19:15:57.422Z,61.16
2019-02-12T19:18:29.524Z,61.07
2019-02-12T19:21:01.553Z,61.37
2019-02-12T19:23:33.224Z,61.87
2019-02-12T19:26:05.823Z,62.03
2019-02-12T19:28:39.722Z,62.00
2019-02-12T19:31:12.021Z,62.36
2019-02-12T19:33:47.029Z,62.53
2019-02-12T19:36:21.174Z,62.64
2019-02-12T19:38:53.560Z,62.92
2019-02-12T19:41:25.658Z,63.28
2019-02-12T19:43:57.734Z,63.18
2019-02-12T19:46:29.393Z,63.03
2019-02-12T19:49:20.158Z,62.94
2019-02-12T19:51:52.647Z,62.81
2019-02-12T19:54:25.137Z,62.95
2019-02-12T19:56:58.586Z,62.99
2019-02-12T19:59:30.623Z,62.64
2019-02-12T20:02:02.713Z,62.46
2019-02-12T20:04:34.632Z,62.29
2019-02-12T20:07:06.261Z,62.23
2019-02-12T20:09:37.995Z,61.72
2019-02-12T20:12:12.684Z,61.80
2019-02-12T20:14:47.988Z,61.75
2019-02-12T20:17:20.888Z,62.04
2019-02-12T20:19:53.072Z,61.75
2019-02-12T20:22:25.774Z,61.84
2019-02-12T20:24:58.039Z,61.44
2019-02-12T20:27:36.113Z,61.85
2019-02-12T20:30:10.643Z,61.50
2019-02-12T20:32:44.415Z,61.67
2019-02-12T20:35:18.025Z,61.72
2019-02-12T20:37:50.316Z,61.88
2019-02-12T20:40:22.106Z,62.04
2019-02-12T20:42:54.047Z,62.24
2019-02-12T20:45:26.225Z,62.43
2019-02-12T20:47:58.025Z,62.58
2019-02-12T20:50:29.744Z,62.37
2019-02-12T20:53:01.423Z,62.75
2019-02-12T20:55:34.392Z,62.95
2019-02-12T20:58:06.821Z,63.19
2019-02-12T21:00:38.871Z,63.03
2019-02-12T21:03:11.209Z,62.95
2019-02-12T21:05:44.727Z,62.90
2019-02-12T21:08:16.584Z,62.84
2019-02-12T21:10:50.146Z,62.86
2019-02-12T21:13:23.318Z,62.47
2019-02-12T21:15:55.713Z,62.57
2019-02-12T21:18:29.105Z,62.43
2019-02-12T21:21:01.144Z,62.47
2019-02-12T21:23:34.885Z,62.23
2019-02-12T21:26:07.619Z,62.09
2019-02-12T21:28:39.615Z,62.04
2019-02-12T21:31:12.004Z,61.97
2019-02-12T21:33:43.984Z,62.06
2019-02-12T21:36:16.780Z,61.97
2019-02-12T21:38:48.838Z,62.02
2019-02-12T21:41:20.999Z,62.28
2019-02-12T21:43:57.332Z,62.29
2019-02-12T21:46:30.763Z,62.28
2019-02-12T21:49:06.638Z,62.58
2019-02-12T21:51:38.382Z,62.70
2019-02-12T21:54:11.174Z,62.87
2019-02-12T21:56:43.004Z,62.88
2019-02-12T21:59:15.098Z,62.88
2019-02-12T22:01:46.737Z,62.82
2019-02-12T22:04:19.666Z,62.82
2019-02-12T22:06:51.893Z,62.54
2019-02-12T22:09:23.959Z,62.65
2019-02-12T22:11:55.712Z,62.66
2019-02-12T22:14:27.493Z,62.83
2019-02-12T22:16:59.391Z,62.79
2019-02-12T22:19:31.070Z,62.77
2019-02-12T22:22:02.698Z,62.94
2019-02-12T22:24:34.366Z,62.69
2019-02-12T22:27:06.053Z,62.94
2019-02-12T22:29:37.663Z,62.97
2019-02-12T22:32:09.349Z,63.34
2019-02-12T22:34:40.928Z,63.40
2019-02-12T22:37:12.532Z,63.01
2019-02-12T22:39:44.140Z,63.17
2019-02-12T22:42:15.949Z,63.18
2019-02-12T22:44:47.567Z,63.30
2019-02-12T22:47:19.188Z,63.16
2019-02-12T22:49:50.798Z,63.35
2019-02-12T22:52:22.612Z,63.26
2019-02-12T22:54:54.560Z,63.59
2019-02-12T22:57:26.384Z,63.81
2019-02-12T22:59:57.990Z,63.75
2019-02-12T23:02:29.598Z,63.75
2019-02-12T23:05:01.280Z,63.81
2019-02-12T23:07:34.295Z,63.73
2019-02-12T23:10:06.211Z,63.77
2019-02-12T23:12:37.875Z,63.92
2019-02-12T23:15:09.603Z,63.53
2019-02-12T23:17:41.333Z,63.77
2019-02-12T23:20:13.003Z,63.77
2019-02-12T23:22:44.701Z,64.12
2019-02-12T23:25:16.391Z,64.70
2019-02-12T23:27:48.098Z,64.54
2019-02-12T23:30:19.690Z,64.62
2019-02-12T23:32:51.390Z,64.72
2019-02-12T23:35:24.002Z,64.58
2019-02-12T23:37:55.710Z,64.56
2019-02-12T23:40:27.551Z,64.67
2019-02-12T23:42:59.491Z,64.69
2019-02-12T23:45:31.170Z,64.46
2019-02-12T23:48:02.766Z,64.62
2019-02-12T23:50:34.365Z,64.71
2019-02-12T23:53:06.034Z,64.87
2019-02-12T23:55:37.699Z,64.53
2019-02-12T23:58:09.312Z,64.53
